Bethel, Indiana
Current Conditions -  °F | °C
As of 9:15 PM on Thursday 20 Nov 2014 (Local Time) from KVES Reporting Station
Overcast Overcast  
Wind Chill: 14°   Ceiling: 4900
Heat Index: 23°   Visibility: 10mi
Dew Point: 18°   Wind: 8mph
Humidity: 80%   Direction: 250°WSW
Pressure: 30.16"   Gusts: NA
Location:  39.9761°N, 84.8943°W
Report Text: KVES 210215Z AUTO 25007KT 10SM SCT039 OVC049 M05/M08 A3016 RMK AO2
Loading
Personal Weather Stations






























Interactive Weather Map New forecast layout! Learn more

10-Day Weather Forecast

Advertisements
Track Severe Weather on mobile